Time;durP1;ratioP1;P1;durP2;ratioP2;P2;SDS_P1;SDS_P2;PMS_P1;PMS_P2;Temp;Humidity;BMP_temperature;BMP_pressure;BME280_temperature;BME280_humidity;BME280_pressure;Samples;Min_cycle;Max_cycle;Signal;HPM_P1;HPM_P2
2021/08/12 00:01:16;;;;;;;0.40;0.20;;;17.40;99.90;;;;;;5034881;28;20420;-68
2021/08/12 00:03:42;;;;;;;0.40;0.10;;;17.50;99.90;;;;;;5034842;28;20900;-68
2021/08/12 00:06:07;;;;;;;0.40;0.30;;;17.50;99.90;;;;;;5033841;28;20178;-68
2021/08/12 00:08:33;;;;;;;0.40;0.20;;;17.40;99.90;;;;;;5034495;28;20420;-68
2021/08/12 00:10:59;;;;;;;0.40;0.20;;;17.50;99.90;;;;;;5034667;28;20618;-68
2021/08/12 00:13:24;;;;;;;0.40;0.20;;;17.40;99.90;;;;;;5034655;28;20284;-69
2021/08/12 00:15:50;;;;;;;0.40;0.27;;;17.30;99.90;;;;;;5033645;28;20182;-69
2021/08/12 00:18:16;;;;;;;0.40;0.20;;;17.30;99.90;;;;;;5034258;28;20470;-69
2021/08/12 00:20:42;;;;;;;0.43;0.23;;;17.10;99.90;;;;;;5034599;28;20186;-69
2021/08/12 00:23:07;;;;;;;0.40;0.20;;;17.10;99.90;;;;;;5035258;28;20459;-69
2021/08/12 00:25:33;;;;;;;0.40;0.20;;;17.00;99.90;;;;;;5035048;28;20173;-69
2021/08/12 00:27:58;;;;;;;0.40;0.20;;;17.10;99.90;;;;;;5033875;28;20181;-69
2021/08/12 00:30:24;;;;;;;0.40;0.20;;;17.10;99.90;;;;;;5034928;28;20185;-68
2021/08/12 00:32:49;;;;;;;0.40;0.20;;;17.10;99.90;;;;;;5035227;28;20190;-68
2021/08/12 00:35:15;;;;;;;0.40;0.10;;;17.10;99.90;;;;;;5035625;28;20276;-68
2021/08/12 00:37:41;;;;;;;0.40;0.20;;;17.10;99.90;;;;;;5035422;28;20298;-68
2021/08/12 00:40:08;;;;;;;0.40;0.20;;;17.00;99.90;;;;;;5035966;28;20239;-68
2021/08/12 00:42:34;;;;;;;0.40;0.20;;;17.00;99.90;;;;;;5036027;28;20178;-68
2021/08/12 00:45:00;;;;;;;0.40;0.20;;;17.00;99.90;;;;;;5034866;28;20519;-68
2021/08/12 00:47:26;;;;;;;0.40;0.20;;;16.90;99.90;;;;;;5038937;28;20424;-68
2021/08/12 00:49:51;;;;;;;0.40;0.20;;;16.90;99.90;;;;;;5040109;28;20424;-68
2021/08/12 00:52:18;;;;;;;0.40;0.20;;;17.00;99.90;;;;;;5039329;28;20603;-68
2021/08/12 00:54:43;;;;;;;0.40;0.20;;;16.90;99.90;;;;;;5040732;28;20192;-68
2021/08/12 00:57:10;;;;;;;0.40;0.20;;;16.90;99.90;;;;;;5040140;28;20464;-68
2021/08/12 00:59:37;;;;;;;0.40;0.20;;;16.90;99.90;;;;;;5038493;28;20177;-68
2021/08/12 01:02:10;;;;;;;0.40;0.20;;;16.90;99.90;;;;;;5036242;28;20431;-68
2021/08/12 01:04:37;;;;;;;0.40;0.30;;;16.80;99.90;;;;;;5033724;28;20420;-68
2021/08/12 01:07:20;;;;;;;0.40;0.20;;;16.80;99.90;;;;;;5033615;28;20513;-68
2021/08/12 01:10:12;;;;;;;0.97;0.90;;;16.80;99.90;;;;;;5033695;28;20412;-68
2021/08/12 01:12:49;;;;;;;0.40;0.20;;;16.70;99.90;;;;;;5033544;28;20506;-68
2021/08/12 01:15:29;;;;;;;1.50;1.05;;;16.50;99.90;;;;;;5033705;28;20501;-68
2021/08/12 01:18:21;;;;;;;1.10;0.97;;;16.40;99.90;;;;;;5032545;28;20208;-68
2021/08/12 01:20:51;;;;;;;0.40;0.20;;;16.40;99.90;;;;;;5032588;28;20482;-68
2021/08/12 01:23:19;;;;;;;0.50;0.30;;;16.30;99.90;;;;;;5032690;28;20535;-68
2021/08/12 01:25:47;;;;;;;0.40;0.20;;;16.30;99.90;;;;;;5033514;28;20428;-68
2021/08/12 01:28:18;;;;;;;0.40;0.20;;;16.30;99.90;;;;;;5033199;28;20435;-68
2021/08/12 01:31:11;;;;;;;0.40;0.20;;;16.30;99.90;;;;;;5033508;28;20176;-68
2021/08/12 01:34:19;;;;;;;6.53;0.83;;;16.30;99.90;;;;;;5033547;28;20184;-68
2021/08/12 01:36:46;;;;;;;0.40;0.20;;;16.10;99.90;;;;;;5033114;28;20439;-68
2021/08/12 01:39:15;;;;;;;0.40;0.20;;;16.10;99.90;;;;;;5033234;28;20216;-68
2021/08/12 01:41:42;;;;;;;0.52;0.52;;;16.10;99.90;;;;;;5033431;28;20257;-68
2021/08/12 01:44:08;;;;;;;1.20;1.20;;;16.10;99.90;;;;;;5033323;28;20637;-68
2021/08/12 01:46:36;;;;;;;0.40;0.20;;;16.10;99.90;;;;;;5033229;28;20811;-68
2021/08/12 01:49:03;;;;;;;0.40;0.30;;;16.20;99.90;;;;;;5034918;28;20486;-68
2021/08/12 01:51:31;;;;;;;0.52;0.35;;;16.10;99.90;;;;;;5037249;28;20435;-68
2021/08/12 01:53:57;;;;;;;0.40;0.20;;;15.90;99.90;;;;;;5037237;28;20178;-68
2021/08/12 01:56:25;;;;;;;1.40;1.30;;;16.00;99.90;;;;;;5037165;28;20272;-68
2021/08/12 01:58:52;;;;;;;0.50;0.50;;;15.90;99.90;;;;;;5036833;28;20536;-66
2021/08/12 02:01:19;;;;;;;0.40;0.20;;;15.80;99.90;;;;;;5036208;28;20654;-66
2021/08/12 02:03:46;;;;;;;0.40;0.20;;;15.80;99.90;;;;;;5037339;28;20239;-66
2021/08/12 02:06:12;;;;;;;0.80;0.40;;;15.80;99.90;;;;;;5037046;28;20229;-66
2021/08/12 02:08:38;;;;;;;0.40;0.10;;;15.70;99.90;;;;;;5036898;28;20435;-66
2021/08/12 02:11:04;;;;;;;0.40;0.20;;;15.70;99.90;;;;;;5037146;28;20181;-66
2021/08/12 02:13:29;;;;;;;0.40;0.20;;;15.90;99.90;;;;;;5037153;28;20201;-66
2021/08/12 02:15:55;;;;;;;0.50;0.30;;;15.80;99.90;;;;;;5037043;28;20506;-66
2021/08/12 02:18:21;;;;;;;3.10;1.23;;;15.70;99.90;;;;;;5036535;28;20597;-66
2021/08/12 02:20:51;;;;;;;0.40;0.20;;;15.60;99.90;;;;;;5035978;28;20442;-66
2021/08/12 02:23:29;;;;;;;0.40;0.20;;;15.60;99.90;;;;;;5037005;28;20173;-66
2021/08/12 02:25:59;;;;;;;0.40;0.20;;;15.70;99.90;;;;;;5035921;28;20243;-66
2021/08/12 02:28:28;;;;;;;0.40;0.20;;;15.80;99.90;;;;;;5036650;28;20199;-66
2021/08/12 02:30:55;;;;;;;0.85;0.85;;;15.90;99.90;;;;;;5036570;28;20203;-66
2021/08/12 02:33:25;;;;;;;1.33;1.20;;;15.80;99.90;;;;;;5036606;28;20494;-66
2021/08/12 02:35:51;;;;;;;0.40;0.20;;;15.60;99.90;;;;;;5036656;28;20209;-66
2021/08/12 02:38:19;;;;;;;0.40;0.20;;;15.70;99.90;;;;;;5036181;28;20209;-66
2021/08/12 02:40:46;;;;;;;0.40;0.20;;;15.80;99.90;;;;;;5036600;28;20181;-66
2021/08/12 02:43:13;;;;;;;0.40;0.20;;;15.80;99.90;;;;;;5036672;28;20212;-66
2021/08/12 02:45:40;;;;;;;0.82;0.35;;;15.90;99.90;;;;;;5036404;28;20490;-66
2021/08/12 02:48:08;;;;;;;2.13;2.00;;;15.80;99.90;;;;;;5035451;28;20181;-66
2021/08/12 02:50:37;;;;;;;0.40;0.20;;;15.80;99.90;;;;;;5035386;28;20255;-66
2021/08/12 02:53:04;;;;;;;1.05;1.05;;;15.70;99.90;;;;;;5036183;28;20289;-66
2021/08/12 02:55:30;;;;;;;0.40;0.20;;;15.70;99.90;;;;;;5035220;28;20200;-66
2021/08/12 02:57:56;;;;;;;0.40;0.20;;;15.70;99.90;;;;;;5035892;28;20205;-66
2021/08/12 03:00:22;;;;;;;0.40;0.20;;;15.80;99.90;;;;;;5035335;28;20185;-67
2021/08/12 03:02:50;;;;;;;0.40;0.10;;;15.70;99.90;;;;;;5036356;28;20215;-68
2021/08/12 03:05:19;;;;;;;0.40;0.20;;;15.70;99.90;;;;;;5036173;28;20436;-68
2021/08/12 03:07:46;;;;;;;0.40;0.20;;;15.80;99.90;;;;;;5035890;28;20834;-68
2021/08/12 03:10:13;;;;;;;0.40;0.20;;;15.70;99.90;;;;;;5034846;28;20518;-68
2021/08/12 03:12:40;;;;;;;0.40;0.20;;;15.50;99.90;;;;;;5035861;28;20181;-66
2021/08/12 03:15:08;;;;;;;0.50;0.30;;;15.60;99.90;;;;;;5035891;28;20272;-67
2021/08/12 03:17:35;;;;;;;0.40;0.20;;;15.60;99.90;;;;;;5035907;28;20233;-65
2021/08/12 03:20:01;;;;;;;0.40;0.30;;;15.60;99.90;;;;;;5035712;28;20177;-67
2021/08/12 03:22:27;;;;;;;0.50;0.32;;;15.60;99.90;;;;;;5035948;28;20178;-66
2021/08/12 03:24:53;;;;;;;0.40;0.20;;;15.60;99.90;;;;;;5035835;28;20622;-66
2021/08/12 03:27:19;;;;;;;0.40;0.20;;;15.70;99.90;;;;;;5035627;28;20537;-66
2021/08/12 03:29:46;;;;;;;0.40;0.20;;;15.70;99.90;;;;;;5034556;28;20181;-66
2021/08/12 03:32:12;;;;;;;0.95;0.40;;;15.70;99.90;;;;;;5035543;28;20188;-66
2021/08/12 03:34:38;;;;;;;0.40;0.20;;;15.70;99.90;;;;;;5035625;28;20190;-66
2021/08/12 03:37:05;;;;;;;0.40;0.20;;;15.70;99.90;;;;;;5035393;28;20178;-66
2021/08/12 03:39:31;;;;;;;0.40;0.30;;;15.60;99.90;;;;;;5034541;28;20189;-66
2021/08/12 03:41:58;;;;;;;0.50;0.30;;;15.70;99.90;;;;;;5035461;28;20181;-66
2021/08/12 03:44:24;;;;;;;0.40;0.20;;;15.70;99.90;;;;;;5035016;28;20189;-65
2021/08/12 03:46:49;;;;;;;0.40;0.20;;;15.70;99.90;;;;;;5035351;28;20428;-65
2021/08/12 03:49:15;;;;;;;0.40;0.20;;;15.80;99.90;;;;;;5035244;28;20431;-65
2021/08/12 03:51:41;;;;;;;0.40;0.20;;;15.80;99.90;;;;;;5034122;28;20224;-67
2021/08/12 03:54:06;;;;;;;0.40;0.20;;;15.90;99.90;;;;;;5034980;28;20436;-67
2021/08/12 03:56:32;;;;;;;0.53;0.37;;;15.90;99.90;;;;;;5034873;28;20196;-67
2021/08/12 03:58:58;;;;;;;0.40;0.20;;;15.90;99.90;;;;;;5033667;28;20275;-67
2021/08/12 04:01:23;;;;;;;0.40;0.10;;;15.90;99.90;;;;;;5034023;28;20174;-67
2021/08/12 04:03:49;;;;;;;0.40;0.20;;;16.00;99.90;;;;;;5034892;28;20177;-67
2021/08/12 04:06:15;;;;;;;0.40;0.20;;;16.00;99.90;;;;;;5034770;28;20506;-67
2021/08/12 04:08:40;;;;;;;0.70;0.57;;;16.00;99.90;;;;;;5033473;28;20610;-67
2021/08/12 04:11:06;;;;;;;0.40;0.20;;;16.10;99.90;;;;;;5034954;28;20610;-68
2021/08/12 04:13:31;;;;;;;0.40;0.20;;;16.10;99.90;;;;;;5034585;28;20637;-69
2021/08/12 04:15:58;;;;;;;0.40;0.20;;;16.20;99.90;;;;;;5034622;28;20653;-68
2021/08/12 04:18:23;;;;;;;0.50;0.30;;;16.30;99.90;;;;;;5033220;28;20292;-68
2021/08/12 04:20:49;;;;;;;0.40;0.20;;;16.20;99.90;;;;;;5034503;28;20507;-68
2021/08/12 04:23:14;;;;;;;0.40;0.20;;;16.20;99.90;;;;;;5033394;28;20180;-68
2021/08/12 04:25:45;;;;;;;0.47;0.40;;;16.20;99.90;;;;;;5034477;28;20173;-69
2021/08/12 04:28:11;;;;;;;0.73;0.67;;;16.30;99.90;;;;;;5033092;28;20516;-69
2021/08/12 04:30:36;;;;;;;0.40;0.20;;;16.30;99.90;;;;;;5034243;28;20462;-69
2021/08/12 04:33:02;;;;;;;1.07;1.03;;;16.30;99.90;;;;;;5034065;28;20490;-69
2021/08/12 04:35:28;;;;;;;0.40;0.20;;;16.40;99.90;;;;;;5034188;28;20210;-69
2021/08/12 04:37:53;;;;;;;0.57;0.40;;;16.40;99.90;;;;;;5033959;28;20676;-68
2021/08/12 04:40:20;;;;;;;1.63;1.53;;;16.50;99.90;;;;;;5033959;28;20177;-68
2021/08/12 04:42:48;;;;;;;0.40;0.20;;;16.60;99.90;;;;;;5033827;28;20216;-68
2021/08/12 04:45:14;;;;;;;0.40;0.20;;;16.80;99.90;;;;;;5034175;28;20693;-68
2021/08/12 04:47:40;;;;;;;0.40;0.20;;;17.20;99.90;;;;;;5033950;28;20431;-68
2021/08/12 04:50:06;;;;;;;2.63;1.10;;;17.70;99.90;;;;;;5033815;28;20427;-68
2021/08/12 04:52:32;;;;;;;0.80;0.80;;;18.00;1.00;;;;;;5033741;28;20177;-68
2021/08/12 04:54:58;;;;;;;0.40;0.20;;;18.40;1.00;;;;;;5033765;28;20769;-68
2021/08/12 04:57:23;;;;;;;0.50;0.30;;;18.60;1.00;;;;;;5033328;28;20217;-68
2021/08/12 04:59:49;;;;;;;0.70;0.70;;;18.80;1.00;;;;;;5033618;28;20271;-68
2021/08/12 05:02:15;;;;;;;0.40;0.20;;;19.20;99.90;;;;;;5032506;28;20178;-69
2021/08/12 05:04:40;;;;;;;1.43;1.33;;;19.70;23.90;;;;;;5033619;28;20178;-69
2021/08/12 05:07:06;;;;;;;0.87;0.87;;;20.00;1.00;;;;;;5033455;28;20558;-69
2021/08/12 05:09:31;;;;;;;0.53;0.47;;;20.20;1.00;;;;;;5033496;28;20186;-69
2021/08/12 05:11:58;;;;;;;1.90;1.27;;;20.40;1.00;;;;;;5033759;28;20208;-69
2021/08/12 05:14:24;;;;;;;0.40;0.20;;;20.40;1.00;;;;;;5033526;28;20169;-69
2021/08/12 05:16:49;;;;;;;0.83;0.77;;;20.50;1.00;;;;;;5033344;28;20416;-68
2021/08/12 05:19:15;;;;;;;3.13;0.60;;;20.10;1.00;;;;;;5033295;28;20339;-68
2021/08/12 05:21:41;;;;;;;0.40;0.20;;;20.00;1.00;;;;;;5033697;28;20213;-69
2021/08/12 05:24:06;;;;;;;0.40;0.20;;;19.60;99.90;;;;;;5032973;28;20518;-68
2021/08/12 05:26:32;;;;;;;0.40;0.20;;;19.40;1.00;;;;;;5032261;28;20259;-68
2021/08/12 05:28:57;;;;;;;0.40;0.20;;;19.10;21.60;;;;;;5033097;28;20190;-69
2021/08/12 05:31:23;;;;;;;0.80;0.60;;;19.10;99.90;;;;;;5032301;28;20273;-68
2021/08/12 05:33:48;;;;;;;0.40;0.20;;;19.70;1.00;;;;;;5033294;28;20239;-68
2021/08/12 05:36:14;;;;;;;0.40;0.20;;;20.40;1.00;;;;;;5033240;28;20220;-68
2021/08/12 05:38:39;;;;;;;0.40;0.20;;;20.90;1.00;;;;;;5033061;28;20213;-68
2021/08/12 05:41:05;;;;;;;0.60;0.57;;;21.40;9.10;;;;;;5033045;28;20213;-69
2021/08/12 05:43:30;;;;;;;0.40;0.20;;;21.50;1.00;;;;;;5032987;28;20182;-69
2021/08/12 05:45:56;;;;;;;1.70;1.60;;;21.50;1.00;;;;;;5031915;28;20185;-69
2021/08/12 05:48:22;;;;;;;1.20;1.10;;;21.30;99.90;;;;;;5032538;28;20196;-70
2021/08/12 05:50:48;;;;;;;0.60;0.37;;;21.40;1.00;;;;;;5031830;28;20178;-70
2021/08/12 05:53:18;;;;;;;0.67;0.43;;;21.60;99.90;;;;;;5031833;28;20432;-70
2021/08/12 05:55:45;;;;;;;0.50;0.30;;;21.60;99.90;;;;;;5032853;28;20432;-70
2021/08/12 05:58:10;;;;;;;0.50;0.50;;;21.20;99.90;;;;;;5031434;28;20479;-70
2021/08/12 06:00:36;;;;;;;1.23;0.50;;;21.00;99.90;;;;;;5032843;28;20506;-70
2021/08/12 06:03:10;;;;;;;0.60;0.40;;;21.10;1.00;;;;;;5032027;28;20609;-70
2021/08/12 06:05:36;;;;;;;0.40;0.20;;;21.60;1.00;;;;;;5030128;28;20182;-69
2021/08/12 06:08:04;;;;;;;0.40;0.20;;;22.10;1.00;;;;;;5030849;28;20432;-69
2021/08/12 06:10:31;;;;;;;0.40;0.20;;;22.20;1.00;;;;;;5031778;28;20975;-69
2021/08/12 06:12:58;;;;;;;0.90;0.80;;;22.60;99.90;;;;;;5032752;28;20486;-70
2021/08/12 06:15:25;;;;;;;1.13;1.13;;;22.90;1.00;;;;;;5030866;28;20424;-70
2021/08/12 06:17:51;;;;;;;3.40;1.80;;;22.80;1.00;;;;;;5030837;28;20904;-70
2021/08/12 06:20:18;;;;;;;0.50;0.40;;;22.90;1.00;;;;;;5021083;28;20527;-70
2021/08/12 06:22:44;;;;;;;0.50;0.40;;;22.50;82.70;;;;;;5031702;28;20428;-70
2021/08/12 06:25:10;;;;;;;0.83;0.83;;;22.30;1.00;;;;;;5032940;28;20416;-70
2021/08/12 06:27:36;;;;;;;12.37;3.30;;;23.30;1.00;;;;;;5032619;28;20944;-70
2021/08/12 06:30:03;;;;;;;0.40;0.20;;;24.20;99.90;;;;;;5032702;28;20432;-70
2021/08/12 06:32:29;;;;;;;0.83;0.83;;;25.50;99.90;;;;;;5031841;28;20193;-70
2021/08/12 06:34:54;;;;;;;0.40;0.20;;;25.40;1.50;;;;;;5032283;28;20522;-70
2021/08/12 06:37:20;;;;;;;0.40;0.20;;;25.60;29.70;;;;;;5034903;28;20254;-70
2021/08/12 06:39:45;;;;;;;0.83;0.70;;;25.10;50.90;;;;;;5036159;28;20174;-70
2021/08/12 06:42:11;;;;;;;0.50;0.30;;;25.90;1.00;;;;;;5035121;28;20640;-71
2021/08/12 06:44:36;;;;;;;3.97;2.00;;;26.20;1.00;;;;;;5036726;28;20178;-70
2021/08/12 06:47:02;;;;;;;0.93;0.93;;;26.00;1.00;;;;;;5036255;28;20662;-70
2021/08/12 06:49:28;;;;;;;1.23;1.17;;;25.50;25.80;;;;;;5037625;28;20184;-70
2021/08/12 06:51:54;;;;;;;0.77;0.70;;;25.20;99.90;;;;;;5039921;28;20177;-71
2021/08/12 06:54:19;;;;;;;2.97;2.77;;;25.90;1.00;;;;;;5035877;28;20200;-68
2021/08/12 06:56:45;;;;;;;0.60;0.50;;;25.80;1.00;;;;;;5034800;28;20439;-67
2021/08/12 06:59:10;;;;;;;0.40;0.20;;;25.70;1.00;;;;;;5041776;28;20205;-70
2021/08/12 07:01:36;;;;;;;0.77;0.77;;;26.80;1.00;;;;;;5034303;28;20178;-70
2021/08/12 07:04:02;;;;;;;3.53;3.20;;;26.80;1.00;;;;;;5030900;28;20228;-66
2021/08/12 07:06:27;;;;;;;1.70;1.60;;;26.80;1.00;;;;;;5038759;28;20327;-66
2021/08/12 07:08:54;;;;;;;2.40;1.80;;;26.30;1.00;;;;;;5038122;28;20189;-66
2021/08/12 07:11:21;;;;;;;2.20;0.63;;;24.50;99.90;;;;;;5033292;28;20452;-66
2021/08/12 07:13:46;;;;;;;3.20;2.47;;;23.30;1.00;;;;;;5035060;28;20437;-66
2021/08/12 07:16:14;;;;;;;2.30;2.10;;;22.80;1.00;;;;;;5035549;28;20963;-66
2021/08/12 07:18:41;;;;;;;0.90;0.70;;;22.80;1.00;;;;;;5034133;28;20291;-66
2021/08/12 07:21:18;;;;;;;2.50;0.73;;;22.80;1.00;;;;;;5035364;28;20524;-66
2021/08/12 07:23:46;;;;;;;1.20;0.90;;;22.70;28.10;;;;;;5037379;28;20436;-65
2021/08/12 07:26:13;;;;;;;0.50;0.40;;;22.60;99.90;;;;;;5035728;28;20501;-65
2021/08/12 07:28:46;;;;;;;1.30;0.60;;;22.40;99.90;;;;;;5035475;28;20428;-65
2021/08/12 07:31:14;;;;;;;0.67;0.53;;;22.30;99.90;;;;;;5035398;28;20420;-64
2021/08/12 07:33:40;;;;;;;0.40;0.20;;;22.10;1.00;;;;;;5035101;28;20428;-65
2021/08/12 07:36:06;;;;;;;0.87;0.87;;;22.20;51.40;;;;;;5035033;28;20750;-65
2021/08/12 07:38:33;;;;;;;1.00;0.80;;;22.30;1.00;;;;;;5034984;28;20202;-66
2021/08/12 07:40:59;;;;;;;1.60;0.97;;;22.50;99.90;;;;;;5035068;28;20542;-68
2021/08/12 07:43:25;;;;;;;1.17;1.07;;;22.60;99.90;;;;;;5035038;28;20436;-68
2021/08/12 07:45:51;;;;;;;1.23;0.40;;;22.70;99.90;;;;;;5034746;28;20432;-66
2021/08/12 07:48:17;;;;;;;0.40;0.20;;;22.70;99.90;;;;;;5034436;28;20599;-66
2021/08/12 07:50:43;;;;;;;0.50;0.30;;;22.90;99.90;;;;;;5034903;28;20466;-66
2021/08/12 07:53:09;;;;;;;0.50;0.33;;;23.50;4.70;;;;;;5034790;28;20177;-67
2021/08/12 07:55:34;;;;;;;0.50;0.30;;;23.50;1.00;;;;;;5034647;28;20485;-68
2021/08/12 07:58:00;;;;;;;0.90;0.60;;;23.50;1.00;;;;;;5053900;28;20475;-68
2021/08/12 08:00:26;;;;;;;0.50;0.30;;;23.30;1.00;;;;;;5042130;28;20558;-68
2021/08/12 08:02:51;;;;;;;0.60;0.40;;;23.30;30.30;;;;;;5034265;28;20282;-69
2021/08/12 08:05:19;;;;;;;0.60;0.30;;;23.30;99.90;;;;;;5034823;28;20607;-68
2021/08/12 08:07:47;;;;;;;0.73;0.73;;;23.50;99.90;;;;;;5034730;28;20184;-68
2021/08/12 08:10:14;;;;;;;0.73;0.43;;;23.60;1.00;;;;;;5033807;28;20436;-68
2021/08/12 08:12:41;;;;;;;0.60;0.50;;;23.20;99.90;;;;;;5034597;28;20519;-65
2021/08/12 08:15:09;;;;;;;1.37;1.17;;;23.10;1.00;;;;;;5034402;28;20968;-66
2021/08/12 08:17:34;;;;;;;1.67;1.10;;;22.70;99.90;;;;;;5034218;28;20481;-66
2021/08/12 08:20:00;;;;;;;1.53;1.43;;;22.60;1.00;;;;;;5034036;28;20901;-68
2021/08/12 08:22:26;;;;;;;0.50;0.20;;;22.50;1.00;;;;;;5034327;28;20434;-67
2021/08/12 08:24:51;;;;;;;0.83;0.57;;;22.80;1.00;;;;;;5033433;28;20178;-66
2021/08/12 08:27:17;;;;;;;0.60;0.33;;;23.20;42.20;;;;;;5033365;28;20243;-68
2021/08/12 08:29:42;;;;;;;0.77;0.77;;;23.40;1.00;;;;;;5033926;28;20220;-66
2021/08/12 08:32:08;;;;;;;0.40;0.17;;;23.60;1.00;;;;;;5034039;28;20566;-66
2021/08/12 08:34:34;;;;;;;0.50;0.30;;;23.90;99.90;;;;;;5033813;28;20184;-66
2021/08/12 08:37:00;;;;;;;0.50;0.30;;;24.10;1.00;;;;;;5033569;28;20173;-65
2021/08/12 08:39:26;;;;;;;1.20;1.00;;;24.30;1.00;;;;;;5033905;28;20477;-65
2021/08/12 08:41:53;;;;;;;3.13;2.20;;;24.30;99.90;;;;;;5034417;28;20475;-65
2021/08/12 08:44:21;;;;;;;0.97;0.43;;;24.30;99.90;;;;;;5034141;28;20209;-66
2021/08/12 08:46:51;;;;;;;0.47;0.20;;;24.40;1.00;;;;;;5033857;28;20421;-66
2021/08/12 08:49:21;;;;;;;1.10;0.40;;;24.70;99.90;;;;;;5034071;28;20443;-66
2021/08/12 08:51:47;;;;;;;1.07;0.67;;;24.50;99.90;;;;;;5033995;28;20423;-67
2021/08/12 08:54:15;;;;;;;0.50;0.20;;;24.40;99.90;;;;;;5034065;28;20432;-69
2021/08/12 08:56:42;;;;;;;0.50;0.40;;;24.50;99.90;;;;;;5034054;28;20566;-70
2021/08/12 08:59:08;;;;;;;0.50;0.20;;;24.90;99.90;;;;;;5032410;28;20554;-67
2021/08/12 09:01:36;;;;;;;2.80;1.90;;;25.10;92.40;;;;;;5033578;28;20436;-69
2021/08/12 09:04:02;;;;;;;0.50;0.20;;;24.90;99.90;;;;;;5032454;28;20188;-67
2021/08/12 09:06:28;;;;;;;1.93;1.60;;;24.90;99.90;;;;;;5033542;28;20444;-68
2021/08/12 09:08:57;;;;;;;1.53;0.40;;;24.90;90.60;;;;;;5033538;28;20193;-68
2021/08/12 09:11:27;;;;;;;0.50;0.30;;;24.90;99.90;;;;;;5028675;28;20263;-67
2021/08/12 09:13:53;;;;;;;0.60;0.57;;;25.30;99.90;;;;;;5033276;28;20432;-67
2021/08/12 09:16:37;;;;;;;0.80;0.80;;;25.50;69.10;;;;;;5032985;28;20848;-68
2021/08/12 09:19:12;;;;;;;0.50;0.20;;;25.90;1.00;;;;;;5033201;28;20468;-69
2021/08/12 09:21:37;;;;;;;2.40;2.20;;;25.60;35.50;;;;;;5032356;28;20423;-67
2021/08/12 09:24:03;;;;;;;0.50;0.30;;;25.20;99.90;;;;;;5033382;28;20933;-67
2021/08/12 09:26:37;;;;;;;4.20;1.37;;;25.20;99.90;;;;;;5030924;28;20193;-68
2021/08/12 09:29:03;;;;;;;0.50;0.20;;;25.40;99.90;;;;;;5033223;28;20892;-68
2021/08/12 09:31:28;;;;;;;0.67;0.50;;;25.50;99.90;;;;;;5029643;28;20527;-68
2021/08/12 09:33:55;;;;;;;1.53;0.87;;;25.40;99.90;;;;;;5024609;28;20241;-68
2021/08/12 09:36:22;;;;;;;2.90;1.30;;;25.40;99.90;;;;;;5032924;28;20178;-67
2021/08/12 09:39:04;;;;;;;0.50;0.10;;;25.50;99.90;;;;;;5033188;28;20534;-68
2021/08/12 09:41:56;;;;;;;1.33;0.93;;;25.40;99.90;;;;;;5032181;28;20431;-68
2021/08/12 09:44:32;;;;;;;0.50;0.20;;;25.70;99.90;;;;;;5031286;28;20535;-68
2021/08/12 09:46:59;;;;;;;2.30;1.30;;;25.80;99.90;;;;;;5029331;28;20803;-68
2021/08/12 09:49:25;;;;;;;1.27;0.87;;;26.00;99.90;;;;;;5028636;28;20444;-68
2021/08/12 09:51:51;;;;;;;0.60;0.37;;;26.00;47.50;;;;;;5033168;28;20533;-69
2021/08/12 09:54:29;;;;;;;1.47;0.73;;;26.10;17.60;;;;;;5030304;28;20944;-67
2021/08/12 09:56:55;;;;;;;0.50;0.20;;;26.10;1.00;;;;;;5033262;28;20236;-67
2021/08/12 09:59:21;;;;;;;0.50;0.20;;;26.20;11.90;;;;;;5034216;28;20459;-70
2021/08/12 10:01:46;;;;;;;3.43;0.97;;;26.30;76.60;;;;;;5033019;28;20501;-69
2021/08/12 10:04:24;;;;;;;1.00;0.63;;;26.40;1.00;;;;;;5033885;28;20212;-69
2021/08/12 10:06:50;;;;;;;0.50;0.23;;;26.50;1.00;;;;;;5033814;28;20189;-69
2021/08/12 10:09:17;;;;;;;1.37;0.97;;;26.50;17.80;;;;;;5035004;28;20424;-69
2021/08/12 10:11:46;;;;;;;0.50;0.23;;;26.80;1.00;;;;;;5040962;28;20573;-68
2021/08/12 10:14:12;;;;;;;2.00;1.90;;;26.90;1.00;;;;;;5037921;28;20518;-67
2021/08/12 10:16:38;;;;;;;1.50;1.40;;;26.90;1.00;;;;;;5039713;28;20452;-67
2021/08/12 10:19:09;;;;;;;0.70;0.63;;;26.70;1.00;;;;;;5039638;28;20213;-67
2021/08/12 10:21:39;;;;;;;3.73;3.53;;;26.90;1.00;;;;;;5042237;28;20446;-75
2021/08/12 10:24:05;;;;;;;0.80;0.80;;;27.20;1.00;;;;;;5032724;28;20494;-74
2021/08/12 10:26:33;;;;;;;1.73;0.60;;;27.00;1.00;;;;;;5022296;28;20451;-72
2021/08/12 10:29:03;;;;;;;0.50;0.20;;;27.00;1.00;;;;;;5037285;28;20431;-73
2021/08/12 10:31:29;;;;;;;1.17;0.93;;;27.30;1.00;;;;;;5037881;28;20436;-72
2021/08/12 10:33:56;;;;;;;1.73;1.63;;;27.50;1.00;;;;;;5036021;28;20427;-67
2021/08/12 10:36:23;;;;;;;2.20;2.00;;;27.80;1.00;;;;;;5035391;28;20432;-66
2021/08/12 10:38:49;;;;;;;0.80;0.50;;;28.00;1.00;;;;;;5036115;28;20471;-67
2021/08/12 10:41:17;;;;;;;3.87;2.27;;;27.90;1.00;;;;;;5036311;28;20428;-66
2021/08/12 10:43:45;;;;;;;2.40;1.83;;;27.70;1.00;;;;;;5035545;28;20494;-66
2021/08/12 10:46:11;;;;;;;3.73;3.00;;;27.20;1.00;;;;;;5036404;28;20525;-66
2021/08/12 10:48:37;;;;;;;1.63;1.13;;;27.30;1.00;;;;;;5036422;28;20425;-67
2021/08/12 10:51:10;;;;;;;1.40;1.30;;;27.50;1.00;;;;;;5035777;28;20258;-67
2021/08/12 10:53:44;;;;;;;0.70;0.50;;;27.60;1.00;;;;;;5035477;28;20444;-67
2021/08/12 10:56:14;;;;;;;0.60;0.40;;;28.00;1.00;;;;;;5037682;28;20434;-67
2021/08/12 10:58:45;;;;;;;3.00;0.87;;;28.20;1.00;;;;;;5035661;28;20476;-67
2021/08/12 11:01:13;;;;;;;0.93;0.77;;;28.20;1.00;;;;;;5035947;28;20420;-66
2021/08/12 11:03:43;;;;;;;0.83;0.60;;;28.10;1.00;;;;;;5035937;28;20416;-66
2021/08/12 11:06:14;;;;;;;0.50;0.30;;;28.10;1.00;;;;;;5031280;28;20445;-66
2021/08/12 11:08:57;;;;;;;0.50;0.30;;;28.20;1.00;;;;;;5034949;28;20432;-66
2021/08/12 11:11:28;;;;;;;1.83;1.37;;;28.90;1.00;;;;;;5034610;28;20436;-66
2021/08/12 11:13:55;;;;;;;2.40;1.90;;;29.20;1.00;;;;;;5036113;28;20799;-66
2021/08/12 11:16:22;;;;;;;0.60;0.43;;;28.80;1.00;;;;;;5035766;28;20494;-66
2021/08/12 11:18:56;;;;;;;2.97;1.67;;;28.50;1.00;;;;;;5027850;28;20492;-65
2021/08/12 11:21:31;;;;;;;1.47;0.93;;;28.40;1.00;;;;;;5015154;28;20798;-67
2021/08/12 11:24:04;;;;;;;0.67;0.40;;;28.30;1.00;;;;;;5031307;28;20799;-66
2021/08/12 11:26:45;;;;;;;2.13;1.60;;;28.30;1.00;;;;;;5016524;28;20513;-66
2021/08/12 11:29:23;;;;;;;0.90;0.60;;;28.00;1.00;;;;;;5034657;28;20427;-66
2021/08/12 11:31:48;;;;;;;0.50;0.30;;;28.00;1.00;;;;;;5035964;28;20455;-67
2021/08/12 11:34:40;;;;;;;0.50;0.20;;;28.30;1.00;;;;;;5030474;28;20460;-66
2021/08/12 11:37:07;;;;;;;0.60;0.40;;;28.30;1.00;;;;;;5035781;28;20196;-67
2021/08/12 11:39:33;;;;;;;0.40;0.20;;;28.30;1.00;;;;;;5035068;28;20544;-65
2021/08/12 11:41:59;;;;;;;0.93;0.80;;;28.40;1.00;;;;;;5033974;28;20513;-67
2021/08/12 11:44:25;;;;;;;0.50;0.30;;;28.30;1.00;;;;;;5034870;28;20897;-66
2021/08/12 11:46:51;;;;;;;1.20;0.77;;;28.00;1.00;;;;;;5034515;28;20622;-66
2021/08/12 11:49:19;;;;;;;0.73;0.73;;;28.00;1.00;;;;;;5034751;28;20185;-66
2021/08/12 11:51:45;;;;;;;1.37;1.07;;;27.80;1.00;;;;;;5035204;28;20503;-66
2021/08/12 11:54:22;;;;;;;0.40;0.10;;;27.80;1.00;;;;;;5033854;28;20456;-66
2021/08/12 11:56:51;;;;;;;1.10;0.40;;;27.90;1.00;;;;;;5043813;28;20750;-66
2021/08/12 11:59:26;;;;;;;2.07;1.97;;;27.70;1.00;;;;;;5052024;28;20537;-68
2021/08/12 12:01:53;;;;;;;2.50;2.30;;;27.80;1.00;;;;;;5034729;28;20474;-66
2021/08/12 12:04:19;;;;;;;0.60;0.30;;;27.80;1.00;;;;;;5035059;28;20432;-65
2021/08/12 12:06:47;;;;;;;0.60;0.57;;;28.10;1.00;;;;;;5034421;28;20536;-67
2021/08/12 12:09:25;;;;;;;0.60;0.50;;;28.40;1.00;;;;;;5034360;28;20431;-67
2021/08/12 12:12:23;;;;;;;0.50;0.40;;;28.30;1.00;;;;;;5033288;28;20444;-65
2021/08/12 12:14:49;;;;;;;0.50;0.10;;;28.30;1.00;;;;;;5016603;28;20511;-67
2021/08/12 12:17:21;;;;;;;0.50;0.17;;;28.50;1.00;;;;;;5034349;28;20459;-67
2021/08/12 12:20:10;;;;;;;0.40;0.10;;;29.00;1.00;;;;;;5026297;28;20181;-64
2021/08/12 12:22:39;;;;;;;0.50;0.20;;;29.30;1.00;;;;;;5018618;28;20439;-67
2021/08/12 12:25:07;;;;;;;0.40;0.20;;;29.40;1.00;;;;;;5034381;28;20523;-67
2021/08/12 12:27:33;;;;;;;0.60;0.53;;;29.40;1.00;;;;;;5034495;28;20459;-67
2021/08/12 12:30:13;;;;;;;0.50;0.20;;;29.40;1.00;;;;;;5033340;28;20436;-69
2021/08/12 12:32:42;;;;;;;0.50;0.20;;;29.20;1.00;;;;;;5028382;28;20808;-71
2021/08/12 12:35:09;;;;;;;1.00;0.73;;;29.40;1.00;;;;;;5034472;28;20428;-70
2021/08/12 12:37:37;;;;;;;0.97;0.73;;;29.10;1.00;;;;;;5035741;28;20451;-70
2021/08/12 12:40:08;;;;;;;0.77;0.50;;;28.70;1.00;;;;;;5035874;28;20431;-70
2021/08/12 12:42:35;;;;;;;1.33;0.23;;;28.80;1.00;;;;;;5035513;28;20444;-69
2021/08/12 12:45:02;;;;;;;0.47;0.20;;;29.00;1.00;;;;;;5035289;28;20473;-69
2021/08/12 12:47:30;;;;;;;0.73;0.70;;;28.80;1.00;;;;;;5040345;28;20416;-70
2021/08/12 12:50:14;;;;;;;0.50;0.20;;;28.90;1.00;;;;;;5040016;28;20503;-67
2021/08/12 12:53:03;;;;;;;0.40;0.20;;;28.90;1.00;;;;;;5036228;28;20434;-68
2021/08/12 12:55:33;;;;;;;0.40;0.20;;;28.60;1.00;;;;;;5035685;28;21086;-68